Time,TemperatureF,DewpointF,PressureIn,WindDirection,WindDirectionDegrees,WindSpeedMPH,WindSpeedGustMPH,Humidity,HourlyPrecipIn,Conditions,Clouds,dailyrainin,SoftwareType,DateUTC
2013-01-14 00:04:00,26.0,22.0,29.99,SW,225,0.0,0.0,85,0.00,,,0.32,,2013-01-14 05:04:00,
2013-01-14 00:12:00,26.0,22.0,29.99,SW,225,0.0,0.0,85,0.00,,,0.32,,2013-01-14 05:12:00,
2013-01-14 00:22:00,26.0,22.0,30.01,WSW,248,0.0,0.0,84,0.00,,,0.32,,2013-01-14 05:22:00,
2013-01-14 00:33:00,26.0,22.0,30.01,West,270,0.0,0.0,84,0.00,,,0.32,,2013-01-14 05:33:00,
2013-01-14 00:42:00,26.0,22.0,30.01,West,270,0.0,0.0,84,0.00,,,0.32,,2013-01-14 05:42:00,
2013-01-14 00:52:00,26.0,22.0,30.02,WSW,248,0.0,0.0,83,0.00,,,0.32,,2013-01-14 05:52:00,
2013-01-14 01:03:00,26.0,22.0,30.02,WSW,248,0.0,0.0,83,0.00,,,0.30,,2013-01-14 06:03:00,
2013-01-14 01:12:00,26.0,22.0,30.02,WSW,248,0.0,0.0,83,0.00,,,0.30,,2013-01-14 06:12:00,
2013-01-14 01:22:00,25.0,21.0,30.03,WSW,248,0.0,0.0,83,0.00,,,0.28,,2013-01-14 06:22:00,
2013-01-14 01:33:00,25.0,20.0,30.04,SW,225,0.0,0.0,82,0.00,,,0.26,,2013-01-14 06:33:00,
2013-01-14 01:43:00,25.0,20.0,30.04,SW,225,0.0,0.0,82,0.00,,,0.26,,2013-01-14 06:43:00,
2013-01-14 01:53:00,24.0,19.0,30.05,WSW,248,0.0,0.0,82,0.00,,,0.22,,2013-01-14 06:53:00,
2013-01-14 02:02:00,24.0,19.0,30.06,West,270,0.0,0.0,82,0.00,,,0.22,,2013-01-14 07:02:00,
2013-01-14 02:12:00,24.0,19.0,30.06,West,270,0.0,0.0,82,0.00,,,0.22,,2013-01-14 07:12:00,
2013-01-14 02:22:00,24.0,19.0,30.06,SW,225,0.0,0.0,81,0.00,,,0.22,,2013-01-14 07:22:00,
2013-01-14 02:33:00,23.0,18.0,30.07,WSW,248,0.0,0.0,81,0.00,,,0.22,,2013-01-14 07:33:00,
2013-01-14 02:42:00,23.0,18.0,30.07,WSW,248,0.0,0.0,81,0.00,,,0.22,,2013-01-14 07:42:00,
2013-01-14 02:52:00,23.0,18.0,30.09,WSW,248,0.0,0.0,80,0.00,,,0.20,,2013-01-14 07:52:00,
2013-01-14 03:02:00,23.0,18.0,30.10,West,270,0.0,0.0,80,0.00,,,0.20,,2013-01-14 08:02:00,
2013-01-14 03:12:00,23.0,18.0,30.10,West,270,0.0,0.0,80,0.00,,,0.20,,2013-01-14 08:12:00,
2013-01-14 03:22:00,23.0,18.0,30.11,WSW,248,0.0,0.0,81,0.00,,,0.20,,2013-01-14 08:22:00,
2013-01-14 03:33:00,23.0,18.0,30.12,WSW,248,0.0,0.0,81,0.00,,,0.20,,2013-01-14 08:33:00,
2013-01-14 03:42:00,23.0,18.0,30.12,WSW,248,0.0,0.0,81,0.00,,,0.20,,2013-01-14 08:42:00,
2013-01-14 03:53:00,22.0,17.0,30.12,West,270,0.0,0.0,81,0.00,,,0.18,,2013-01-14 08:53:00,
2013-01-14 04:02:00,22.0,17.0,30.14,West,270,0.0,0.0,81,0.00,,,0.16,,2013-01-14 09:02:00,
2013-01-14 04:12:00,22.0,17.0,30.14,West,270,0.0,0.0,81,0.00,,,0.16,,2013-01-14 09:12:00,
2013-01-14 04:23:00,21.0,16.0,30.16,West,270,0.0,0.0,80,0.00,,,0.12,,2013-01-14 09:23:00,
2013-01-14 04:33:00,21.0,16.0,30.16,West,270,0.0,0.0,80,0.00,,,0.10,,2013-01-14 09:33:00,
2013-01-14 04:43:00,21.0,16.0,30.16,West,270,0.0,0.0,80,0.00,,,0.10,,2013-01-14 09:43:00,
2013-01-14 04:53:00,21.0,16.0,30.17,West,270,0.0,0.0,80,0.00,,,0.08,,2013-01-14 09:53:00,
2013-01-14 05:02:00,21.0,16.0,30.18,West,270,0.0,0.0,79,0.00,,,0.06,,2013-01-14 10:02:00,
2013-01-14 05:12:00,21.0,16.0,30.18,West,270,0.0,0.0,79,0.00,,,0.06,,2013-01-14 10:12:00,
2013-01-14 05:23:00,21.0,16.0,30.19,SW,225,0.0,0.0,79,0.00,,,0.04,,2013-01-14 10:23:00,
2013-01-14 05:32:00,21.0,16.0,30.20,WNW,293,0.0,0.0,79,0.00,,,0.04,,2013-01-14 10:32:00,
2013-01-14 05:42:00,21.0,16.0,30.20,WNW,293,0.0,0.0,79,0.00,,,0.04,,2013-01-14 10:42:00,
2013-01-14 05:53:00,20.0,15.0,30.21,SW,225,0.0,0.0,79,0.00,,,0.04,,2013-01-14 10:53:00,
2013-01-14 06:02:00,20.0,15.0,30.21,West,270,0.0,0.0,80,0.00,,,0.02,,2013-01-14 11:02:00,
2013-01-14 06:12:00,20.0,15.0,30.21,West,270,0.0,0.0,80,0.00,,,0.02,,2013-01-14 11:12:00,
2013-01-14 06:22:00,20.0,15.0,30.22,West,270,0.0,0.0,80,0.00,,,0.02,,2013-01-14 11:22:00,
2013-01-14 06:33:00,20.0,15.0,30.22,SW,225,0.0,0.0,79,0.00,,,0.02,,2013-01-14 11:33:00,
2013-01-14 06:42:00,20.0,15.0,30.22,SW,225,0.0,0.0,79,0.00,,,0.02,,2013-01-14 11:42:00,
2013-01-14 06:53:00,20.0,15.0,30.24,SW,225,0.0,0.0,79,0.00,,,0.02,,2013-01-14 11:53:00,
2013-01-14 07:03:00,20.0,15.0,30.24,West,270,0.0,0.0,79,0.00,,,0.02,,2013-01-14 12:03:00,
2013-01-14 07:12:00,20.0,15.0,30.24,West,270,0.0,0.0,79,0.00,,,0.02,,2013-01-14 12:12:00,
2013-01-14 07:23:00,20.0,14.0,30.25,West,270,0.0,0.0,78,0.00,,,0.02,,2013-01-14 12:23:00,
2013-01-14 07:33:00,20.0,14.0,30.26,SW,225,0.0,0.0,78,0.00,,,0.02,,2013-01-14 12:33:00,
2013-01-14 07:43:00,20.0,14.0,30.26,SW,225,0.0,0.0,78,0.00,,,0.02,,2013-01-14 12:43:00,
2013-01-14 07:53:00,20.0,15.0,30.27,WSW,248,0.0,0.0,79,0.00,,,0.02,,2013-01-14 12:53:00,
2013-01-14 08:03:00,20.0,14.0,30.27,SW,225,0.0,0.0,78,0.00,,,0.02,,2013-01-14 13:03:00,
2013-01-14 08:12:00,20.0,14.0,30.27,SW,225,0.0,0.0,78,0.00,,,0.02,,2013-01-14 13:12:00,
2013-01-14 08:23:00,20.0,14.0,30.29,WSW,248,0.0,0.0,77,0.00,,,0.02,,2013-01-14 13:23:00,
2013-01-14 08:33:00,19.0,13.0,30.29,West,270,0.0,0.0,77,0.00,,,0.02,,2013-01-14 13:33:00,
2013-01-14 08:43:00,19.0,13.0,30.29,West,270,0.0,0.0,77,0.00,,,0.02,,2013-01-14 13:43:00,
2013-01-14 08:53:00,18.0,12.0,30.30,West,270,0.0,0.0,76,0.00,,,0.02,,2013-01-14 13:53:00,
2013-01-14 09:03:00,18.0,12.0,30.31,West,270,0.0,0.0,76,0.00,,,0.02,,2013-01-14 14:03:00,
2013-01-14 09:13:00,18.0,12.0,30.31,West,270,0.0,0.0,76,0.00,,,0.02,,2013-01-14 14:13:00,
2013-01-14 09:23:00,18.0,12.0,30.32,West,270,0.0,0.0,76,0.00,,,0.02,,2013-01-14 14:23:00,
2013-01-14 09:33:00,19.0,13.0,30.33,WNW,293,0.0,0.0,77,0.00,,,0.02,,2013-01-14 14:33:00,
2013-01-14 09:43:00,19.0,13.0,30.33,WNW,293,0.0,0.0,77,0.00,,,0.02,,2013-01-14 14:43:00,
2013-01-14 09:53:00,20.0,14.0,30.34,WNW,293,0.0,0.0,76,0.00,,,0.02,,2013-01-14 14:53:00,
2013-01-14 10:03:00,21.0,15.0,30.35,WNW,293,0.0,0.0,76,0.00,,,0.02,,2013-01-14 15:03:00,
2013-01-14 10:12:00,21.0,15.0,30.35,WNW,293,0.0,0.0,76,0.00,,,0.02,,2013-01-14 15:12:00,
2013-01-14 10:23:00,22.0,15.0,30.35,West,270,0.0,0.0,75,0.00,,,0.02,,2013-01-14 15:23:00,
2013-01-14 10:33:00,22.0,15.0,30.35,West,270,0.0,0.0,74,0.00,,,0.02,,2013-01-14 15:33:00,
2013-01-14 10:43:00,22.0,15.0,30.35,West,270,0.0,0.0,74,0.00,,,0.02,,2013-01-14 15:43:00,
2013-01-14 10:53:00,24.0,17.0,30.35,West,270,0.0,0.0,73,0.00,,,0.02,,2013-01-14 15:53:00,
2013-01-14 11:03:00,24.0,17.0,30.35,NW,315,0.0,0.0,73,0.00,,,0.02,,2013-01-14 16:03:00,
2013-01-14 11:12:00,24.0,17.0,30.35,NW,315,0.0,0.0,73,0.00,,,0.02,,2013-01-14 16:12:00,
2013-01-14 11:23:00,22.0,15.0,30.35,NW,315,0.0,0.0,73,0.00,,,0.02,,2013-01-14 16:23:00,
2013-01-14 11:33:00,21.0,14.0,30.35,NW,315,0.0,0.0,73,0.00,,,0.02,,2013-01-14 16:33:00,
2013-01-14 11:43:00,21.0,14.0,30.35,NW,315,0.0,0.0,73,0.00,,,0.02,,2013-01-14 16:43:00,
2013-01-14 11:53:00,24.0,17.0,30.35,WNW,293,0.0,0.0,73,0.00,,,0.02,,2013-01-14 16:53:00,
2013-01-14 12:03:00,25.0,17.0,30.34,West,270,0.0,0.0,71,0.00,,,0.02,,2013-01-14 17:03:00,
2013-01-14 12:12:00,25.0,17.0,30.34,West,270,0.0,0.0,71,0.00,,,0.02,,2013-01-14 17:12:00,
2013-01-14 12:23:00,26.0,18.0,30.34,West,270,0.0,0.0,70,0.00,,,0.02,,2013-01-14 17:23:00,
2013-01-14 12:33:00,27.0,18.0,30.33,WNW,293,0.0,0.0,69,0.02,,,0.02,,2013-01-14 17:33:00,
2013-01-14 12:43:00,27.0,18.0,30.33,WNW,293,0.0,0.0,69,0.02,,,0.02,,2013-01-14 17:43:00,
2013-01-14 12:54:00,28.0,19.0,30.32,NNW,338,0.0,0.0,68,0.02,,,0.04,,2013-01-14 17:54:00,
2013-01-14 13:03:00,29.0,19.0,30.32,West,270,0.0,0.0,67,0.02,,,0.04,,2013-01-14 18:03:00,
2013-01-14 13:13:00,29.0,19.0,30.32,WSW,248,0.0,0.0,66,0.02,,,0.04,,2013-01-14 18:13:00,
2013-01-14 13:23:00,29.0,19.0,30.32,WSW,248,0.0,0.0,66,0.02,,,0.04,,2013-01-14 18:23:00,
2013-01-14 13:33:00,30.0,20.0,30.32,West,270,0.0,0.0,66,0.02,,,0.06,,2013-01-14 18:33:00,
2013-01-14 13:43:00,30.0,20.0,30.32,West,270,0.0,0.0,66,0.02,,,0.06,,2013-01-14 18:43:00,
2013-01-14 13:53:00,28.0,17.0,30.32,West,270,0.0,0.0,64,0.02,,,0.06,,2013-01-14 18:53:00,
2013-01-14 14:03:00,28.0,17.0,30.32,WNW,293,0.0,0.0,64,0.02,,,0.06,,2013-01-14 19:03:00,
2013-01-14 14:12:00,28.0,17.0,30.32,WNW,293,0.0,0.0,64,0.02,,,0.06,,2013-01-14 19:12:00,
2013-01-14 14:22:00,29.0,18.0,30.31,WNW,293,0.0,0.0,64,0.04,,,0.06,,2013-01-14 19:22:00,
2013-01-14 14:33:00,29.0,18.0,30.31,SW,225,0.0,0.0,64,0.02,,,0.06,,2013-01-14 19:33:00,
2013-01-14 14:43:00,29.0,18.0,30.31,SW,225,0.0,0.0,64,0.02,,,0.06,,2013-01-14 19:43:00,
2013-01-14 14:53:00,30.0,19.0,30.32,WNW,293,0.0,0.0,63,0.02,,,0.06,,2013-01-14 19:53:00,
2013-01-14 15:03:00,30.0,19.0,30.33,SSW,203,1.0,3.0,63,0.02,,,0.06,,2013-01-14 20:03:00,
2013-01-14 15:13:00,30.0,19.0,30.33,SSW,203,1.0,3.0,63,0.02,,,0.06,,2013-01-14 20:13:00,
2013-01-14 15:23:00,29.0,18.0,30.34,WSW,248,0.0,0.0,62,0.00,,,0.06,,2013-01-14 20:23:00,
2013-01-14 15:33:00,26.0,15.0,30.35,WSW,248,0.0,0.0,63,0.00,,,0.06,,2013-01-14 20:33:00,
2013-01-14 15:43:00,26.0,15.0,30.35,WSW,248,0.0,0.0,63,0.00,,,0.06,,2013-01-14 20:43:00,
2013-01-14 15:53:00,25.0,15.0,30.36,SW,225,0.0,0.0,64,0.00,,,0.06,,2013-01-14 20:53:00,
2013-01-14 16:03:00,25.0,15.0,30.37,WSW,248,0.0,1.0,65,0.00,,,0.06,,2013-01-14 21:03:00,
2013-01-14 16:12:00,25.0,15.0,30.37,WSW,248,0.0,1.0,65,0.00,,,0.06,,2013-01-14 21:12:00,
2013-01-14 16:23:00,24.0,14.0,30.36,WSW,248,1.0,3.0,65,0.00,,,0.06,,2013-01-14 21:23:00,
2013-01-14 16:33:00,24.0,14.0,30.37,WSW,248,2.0,3.0,66,0.00,,,0.06,,2013-01-14 21:33:00,
2013-01-14 16:43:00,24.0,14.0,30.37,WSW,248,2.0,3.0,66,0.00,,,0.06,,2013-01-14 21:43:00,
2013-01-14 16:53:00,24.0,15.0,30.37,WSW,248,0.0,0.0,67,0.00,,,0.06,,2013-01-14 21:53:00,
2013-01-14 17:03:00,24.0,15.0,30.37,SW,225,0.0,0.0,67,0.00,,,0.06,,2013-01-14 22:03:00,
2013-01-14 17:12:00,24.0,15.0,30.37,SW,225,0.0,0.0,67,0.00,,,0.06,,2013-01-14 22:12:00,
2013-01-14 17:23:00,24.0,15.0,30.35,South,180,1.0,3.0,67,0.00,,,0.06,,2013-01-14 22:23:00,
2013-01-14 17:33:00,24.0,15.0,30.37,SW,225,0.0,0.0,68,0.00,,,0.06,,2013-01-14 22:33:00,
2013-01-14 17:43:00,24.0,15.0,30.37,SW,225,0.0,0.0,68,0.00,,,0.06,,2013-01-14 22:43:00,
2013-01-14 17:53:00,23.0,14.0,30.38,SW,225,0.0,0.0,68,0.00,,,0.06,,2013-01-14 22:53:00,
2013-01-14 18:03:00,23.0,14.0,30.38,SSW,203,0.0,0.0,69,0.00,,,0.06,,2013-01-14 23:03:00,
2013-01-14 18:12:00,23.0,14.0,30.38,SSW,203,0.0,0.0,69,0.00,,,0.06,,2013-01-14 23:12:00,
2013-01-14 18:23:00,22.0,13.0,30.38,SSW,203,0.0,0.0,69,0.00,,,0.06,,2013-01-14 23:23:00,
2013-01-14 18:33:00,22.0,13.0,30.38,SSW,203,0.0,0.0,69,0.00,,,0.06,,2013-01-14 23:33:00,
2013-01-14 18:43:00,22.0,13.0,30.38,SSW,203,0.0,0.0,69,0.00,,,0.06,,2013-01-14 23:43:00,
2013-01-14 18:53:00,21.0,13.0,30.38,SSW,203,0.0,0.0,70,0.00,,,0.06,,2013-01-14 23:53:00,
2013-01-14 19:03:00,20.0,12.0,30.37,SSW,203,0.0,0.0,70,0.00,,,0.06,,2013-01-15 00:03:00,
2013-01-14 19:12:00,20.0,12.0,30.37,SSW,203,0.0,0.0,70,0.00,,,0.06,,2013-01-15 00:12:00,
2013-01-14 19:23:00,20.0,12.0,30.37,SSW,203,0.0,0.0,71,0.00,,,0.06,,2013-01-15 00:23:00,
2013-01-14 19:33:00,20.0,12.0,30.37,SSW,203,0.0,0.0,71,0.00,,,0.06,,2013-01-15 00:33:00,
2013-01-14 19:43:00,20.0,12.0,30.37,SSW,203,0.0,0.0,71,0.00,,,0.06,,2013-01-15 00:43:00,
2013-01-14 19:53:00,19.0,11.0,30.37,SSW,203,0.0,0.0,72,0.00,,,0.06,,2013-01-15 00:53:00,
2013-01-14 20:02:00,19.0,11.0,30.37,SSW,203,0.0,0.0,72,0.00,,,0.06,,2013-01-15 01:02:00,
2013-01-14 20:12:00,18.0,11.0,30.36,SSW,203,0.0,0.0,73,0.00,,,0.06,,2013-01-15 01:12:00,
2013-01-14 20:22:00,18.0,11.0,30.36,SSW,203,0.0,0.0,73,0.00,,,0.06,,2013-01-15 01:22:00,
2013-01-14 20:32:00,18.0,11.0,30.36,SSW,203,0.0,0.0,73,0.00,,,0.06,,2013-01-15 01:32:00,
2013-01-14 20:43:00,18.0,11.0,30.36,SSW,203,0.0,0.0,73,0.00,,,0.06,,2013-01-15 01:43:00,
2013-01-14 20:52:00,18.0,11.0,30.35,SSW,203,0.0,0.0,73,0.00,,,0.06,,2013-01-15 01:52:00,
2013-01-14 21:02:00,18.0,11.0,30.36,SSW,203,0.0,0.0,74,0.00,,,0.06,,2013-01-15 02:02:00,
2013-01-14 21:12:00,18.0,11.0,30.36,SSW,203,0.0,0.0,74,0.00,,,0.06,,2013-01-15 02:12:00,
2013-01-14 21:22:00,18.0,11.0,30.36,SW,225,0.0,0.0,75,0.00,,,0.06,,2013-01-15 02:22:00,
2013-01-14 21:32:00,18.0,11.0,30.35,SW,225,0.0,0.0,75,0.00,,,0.06,,2013-01-15 02:32:00,
2013-01-14 21:42:00,18.0,11.0,30.35,SW,225,0.0,0.0,75,0.00,,,0.06,,2013-01-15 02:42:00,
2013-01-14 21:53:00,18.0,11.0,30.36,SW,225,0.0,0.0,75,0.00,,,0.06,,2013-01-15 02:53:00,
2013-01-14 22:02:00,17.0,10.0,30.36,SW,225,0.0,0.0,75,0.00,,,0.06,,2013-01-15 03:02:00,
2013-01-14 22:12:00,17.0,10.0,30.36,SW,225,0.0,0.0,75,0.00,,,0.06,,2013-01-15 03:12:00,
2013-01-14 22:22:00,17.0,10.0,30.36,SW,225,0.0,0.0,75,0.00,,,0.06,,2013-01-15 03:22:00,
2013-01-14 22:33:00,17.0,11.0,30.36,SW,225,0.0,0.0,76,0.00,,,0.06,,2013-01-15 03:33:00,
2013-01-14 22:42:00,17.0,11.0,30.36,SW,225,0.0,0.0,76,0.00,,,0.06,,2013-01-15 03:42:00,
2013-01-14 22:52:00,17.0,11.0,30.35,SW,225,0.0,0.0,76,0.00,,,0.06,,2013-01-15 03:52:00,
2013-01-14 23:03:00,17.0,11.0,30.35,SW,225,0.0,0.0,76,0.00,,,0.06,,2013-01-15 04:03:00,
2013-01-14 23:12:00,17.0,11.0,30.35,SW,225,0.0,0.0,76,0.00,,,0.06,,2013-01-15 04:12:00,
2013-01-14 23:22:00,17.0,11.0,30.35,SW,225,0.0,0.0,76,0.00,,,0.06,,2013-01-15 04:22:00,
2013-01-14 23:32:00,16.0,10.0,30.35,SW,225,0.0,0.0,77,0.00,,,0.06,,2013-01-15 04:32:00,
2013-01-14 23:42:00,16.0,10.0,30.35,SW,225,0.0,0.0,77,0.00,,,0.06,,2013-01-15 04:42:00,
2013-01-14 23:52:00,16.0,10.0,30.35,SW,225,0.0,0.0,77,0.00,,,0.06,,2013-01-15 04:52:00,